Flight Track Log - Related Links

Times and Time Zones

All times are in EDT time to prevent confusion due to time zone crossing. See the LOF3416 flight status page for this flight to view local times or setup timezone preferences in your user account.

Time Position Orientation Groundspeed Altitude Reporting Facility
EDT Latitude Longitude Course Direction KTS MPH feet Rate Location/Type
Sun 09:34:34 PM 41.9667 -87.8500 143° Southeast 166 191 3,300  Level Chicago TRACON
Sun 09:35:28 PM 41.9167 -87.8000 143° Southeast 223 257 4,700 850 Climbing Chicago TRACON
Sun 09:36:34 PM 41.8500 -87.7667 160° South 266 306 5,000 98 Climbing Chicago TRACON
Sun 09:37:31 PM 41.7900 -87.7656 179° South 257 296 4,900 958 Descending Chicago Center
Sun 09:38:33 PM 41.7306 -87.8161 212° Southwest 263 303 6,900 2,049 Climbing Chicago Center
Sun 09:39:34 PM 41.6719 -87.8814 220° Southwest 273 314 9,100 2,293 Climbing Chicago Center
Sun 09:40:36 PM 41.5989 -87.9628 220° Southwest 285 328 11,600 2,081 Climbing Chicago Center
Sun 09:41:38 PM 41.5350 -88.0328 219° Southwest 295 339 13,400 1,415 Climbing Chicago Center
Sun 09:42:39 PM 41.4500 -88.0833 204° Southwest 333 383 14,500 1,268 Climbing Chicago Center
Sun 09:43:41 PM 41.3453 -88.1372 201° Southwest 360 414 16,000 1,415 Climbing Chicago Center
Sun 09:44:42 PM 41.2506 -88.1867 201° Southwest 368 423 17,400 1,415 Climbing Chicago Center
Sun 09:45:44 PM 41.1553 -88.2367 202° Southwest 372 428 18,900 1,742 Climbing Chicago Center
Sun 09:46:46 PM 41.0597 -88.2861 201° Southwest 372 428 21,000 1,756 Climbing Chicago Center
Sun 09:47:47 PM 40.9653 -88.3342 201° Southwest 366 421 22,500 1,512 Climbing Chicago Center
Sun 09:48:49 PM 40.8714 -88.3825 201° Southwest 366 421 24,100 1,512 Climbing Chicago Center
Sun 09:49:50 PM 40.7728 -88.4742 215° Southwest 365 420 25,600 1,268 Climbing Chicago Center
Sun 09:50:52 PM 40.6922 -88.5622 220° Southwest 374 430 26,700 976 Climbing Chicago Center
Sun 09:51:53 PM 40.6083 -88.6533 220° Southwest 390 449 27,600 634 Climbing Chicago Center
Sun 09:52:55 PM 40.5225 -88.7464 220° Southwest 400 460 28,000 195 Climbing Chicago Center
Sun 09:53:56 PM 40.4322 -88.8442 220° Southwest 422 486 28,000  Level Chicago Center
Sun 09:54:58 PM 40.3331 -88.9497 219° Southwest 444 511 28,000  Level Chicago Center
Sun 09:55:59 PM 40.2322 -89.0564 219° Southwest 457 526 28,000  Level Chicago Center
Sun 09:57:01 PM 40.1331 -89.1622 219° Southwest 459 528 28,000  Level Chicago Center
Sun 09:57:50 PM 40.0514 -89.2508 220° Southwest 466 536 28,000  Level Kansas City Center
Sun 09:58:51 PM 39.9306 -89.3778 219° Southwest 463 533 28,000  Level Kansas City Center
Sun 09:59:53 PM 39.8303 -89.4833 219° Southwest 463 533 28,000  Level Kansas City Center
Sun 10:00:54 PM 39.7303 -89.5897 219° Southwest 462 532 28,000  Level Kansas City Center
Sun 10:01:56 PM 39.6267 -89.6961 218° Southwest 462 532 28,000  Level Kansas City Center
Sun 10:02:57 PM 39.5264 -89.8003 219° Southwest 463 533 28,000  Level Kansas City Center
Sun 10:03:58 PM 39.4267 -89.9053 219° Southwest 462 532 28,000  Level Kansas City Center
Sun 10:05:00 PM 39.3253 -90.0089 218° Southwest 465 535 28,000  Level Kansas City Center
Sun 10:06:01 PM 39.2258 -90.1117 219° Southwest 462 532 28,000  Level Kansas City Center
Sun 10:07:03 PM 39.1250 -90.2147 218° Southwest 463 533 28,000  Level Kansas City Center
Sun 10:08:04 PM 39.0236 -90.3186 219° Southwest 465 535 28,000  Level Kansas City Center
Sun 10:09:05 PM 38.9036 -90.4417 219° Southwest 465 535 28,000  Level Kansas City Center
Sun 10:10:07 PM 38.8122 -90.5575 225° Southwest 463 533 28,000  Level Kansas City Center
Sun 10:11:08 PM 38.7508 -90.7028 242° Southwest 476 548 28,000  Level Kansas City Center
Sun 10:12:09 PM 38.6811 -90.8364 236° Southwest 465 535 28,000  Level Kansas City Center
Sun 10:13:11 PM 38.6114 -90.9744 237° Southwest 465 535 28,000  Level Kansas City Center
Sun 10:14:12 PM 38.5414 -91.1117 237° Southwest 464 534 28,000  Level Kansas City Center
Sun 10:15:13 PM 38.4692 -91.2514 237° Southwest 471 542 28,000  Level Kansas City Center
Sun 10:16:15 PM 38.3931 -91.3981 237° Southwest 466 536 28,000  Level Kansas City Center
Sun 10:17:16 PM 38.3208 -91.5350 236° Southwest 465 535 28,000  Level Kansas City Center
Sun 10:18:17 PM 38.2347 -91.6972 236° Southwest 462 532 28,000  Level Kansas City Center
Sun 10:19:18 PM 38.1642 -91.8339 237° Southwest 462 532 28,000  Level Kansas City Center
Sun 10:20:20 PM 38.0908 -91.9719 236° Southwest 466 536 28,000  Level Kansas City Center
Sun 10:21:21 PM 38.0267 -92.0947 236° Southwest 464 534 28,000 -197 Level Kansas City Center
Sun 10:22:22 PM 37.9556 -92.2267 236° Southwest 459 528 27,600 -934 Descending Kansas City Center
Sun 10:23:23 PM 37.8794 -92.3619 235° Southwest 469 540 26,100 -1,561 Descending Kansas City Center
Sun 10:24:25 PM 37.8111 -92.4981 238° Southwest 464 534 24,400 -2,195 Descending Kansas City Center
Sun 10:25:26 PM 37.7331 -92.6508 237° Southwest 446 513 21,600 -2,557 Descending Kansas City Center
Sun 10:26:27 PM 37.6681 -92.7678 235° Southwest 423 487 19,200 -2,459 Descending Kansas City Center
Sun 10:27:28 PM 37.6106 -92.8819 238° Southwest 393 452 16,600 -2,683 Descending Kansas City Center
Sun 10:28:30 PM 37.5547 -92.9919 237° Southwest 379 436 13,700 -2,683 Descending Kansas City Center
Sun 10:29:31 PM 37.5003 -93.1022 238° Southwest 374 430 11,100 -1,918 Descending Kansas City Center
Sun 10:30:32 PM 37.4533 -93.1961 238° Southwest 319 367 9,800 -1,820 Descending Kansas City Center
Sun 10:31:33 PM 37.4100 -93.2806 237° Southwest 291 335 7,400 -1,967 Descending Kansas City Center
Sun 10:32:34 PM 37.3717 -93.3525 236° Southwest 267 307 5,800 -1,659 Descending Kansas City Center
Sun 10:33:36 PM 37.3400 -93.4158 238° Southwest 233 268 4,000 -1,268 Descending Kansas City Center
Sun 10:34:37 PM 37.3103 -93.4642 232° Southwest 197 227 3,200 -1,033 Descending Kansas City Center
Sun 10:35:38 PM 37.2797 -93.4233 133° Southeast 161 185 1,900 -934 Descending Kansas City Center
Sun 10:36:39 PM 37.2572 -93.4031 144° Southeast 145 167 1,300 -590 Descending Kansas City Center
Sun 10:38:00 PM 37.2457 -93.3886 141° Southeast  Level Estimated
Sun 10:45:00 PM 37.2457 -93.3886 141° Southeast  Level Estimated
Sun 10:46:00 PM 37.2457 -93.3886 141° Southeast  Level Estimated

Login

Don't have an account? Register now (free) for customized features, flight alerts, and more!